sensor_id;sensor_type;location;lat;lon;timestamp;temperature;humidity
38592;DHT22;24356;48.460;11.450;2023-05-07T00:00:21;11.30;80.90
38592;DHT22;24356;48.460;11.450;2023-05-07T00:02:46;11.30;81.00
38592;DHT22;24356;48.460;11.450;2023-05-07T00:05:12;11.20;81.20
38592;DHT22;24356;48.460;11.450;2023-05-07T00:07:38;11.20;81.10
38592;DHT22;24356;48.460;11.450;2023-05-07T00:10:04;11.20;81.10
38592;DHT22;24356;48.460;11.450;2023-05-07T00:12:32;11.20;81.20
38592;DHT22;24356;48.460;11.450;2023-05-07T00:15:04;11.20;81.00
38592;DHT22;24356;48.460;11.450;2023-05-07T00:17:30;11.20;81.20
38592;DHT22;24356;48.460;11.450;2023-05-07T00:19:56;11.10;81.20
38592;DHT22;24356;48.460;11.450;2023-05-07T00:22:22;11.10;81.00
38592;DHT22;24356;48.460;11.450;2023-05-07T00:24:47;11.10;81.30
38592;DHT22;24356;48.460;11.450;2023-05-07T00:27:13;11.10;81.40
38592;DHT22;24356;48.460;11.450;2023-05-07T00:29:38;11.10;81.40
38592;DHT22;24356;48.460;11.450;2023-05-07T00:32:04;11.10;81.30
38592;DHT22;24356;48.460;11.450;2023-05-07T00:34:30;11.00;81.40
38592;DHT22;24356;48.460;11.450;2023-05-07T00:36:56;11.00;81.50
38592;DHT22;24356;48.460;11.450;2023-05-07T00:39:21;11.00;81.30
38592;DHT22;24356;48.460;11.450;2023-05-07T00:41:47;11.00;81.40
38592;DHT22;24356;48.460;11.450;2023-05-07T00:44:13;11.00;81.40
38592;DHT22;24356;48.460;11.450;2023-05-07T00:46:40;11.00;81.30
38592;DHT22;24356;48.460;11.450;2023-05-07T00:49:05;11.00;81.50
38592;DHT22;24356;48.460;11.450;2023-05-07T00:51:32;11.00;81.40
38592;DHT22;24356;48.460;11.450;2023-05-07T00:54:00;11.00;81.30
38592;DHT22;24356;48.460;11.450;2023-05-07T00:56:26;11.00;81.50
38592;DHT22;24356;48.460;11.450;2023-05-07T00:58:52;11.00;81.50
38592;DHT22;24356;48.460;11.450;2023-05-07T01:01:18;11.00;81.60
38592;DHT22;24356;48.460;11.450;2023-05-07T01:03:43;10.90;81.50
38592;DHT22;24356;48.460;11.450;2023-05-07T01:06:10;11.00;81.60
38592;DHT22;24356;48.460;11.450;2023-05-07T01:08:38;10.90;81.60
38592;DHT22;24356;48.460;11.450;2023-05-07T01:11:06;10.90;81.50
38592;DHT22;24356;48.460;11.450;2023-05-07T01:13:33;10.90;81.50
38592;DHT22;24356;48.460;11.450;2023-05-07T01:15:59;10.90;81.50
38592;DHT22;24356;48.460;11.450;2023-05-07T01:18:25;10.90;81.60
38592;DHT22;24356;48.460;11.450;2023-05-07T01:20:52;10.90;81.60
38592;DHT22;24356;48.460;11.450;2023-05-07T01:23:18;10.90;81.50
38592;DHT22;24356;48.460;11.450;2023-05-07T01:25:51;10.90;81.50
38592;DHT22;24356;48.460;11.450;2023-05-07T01:28:16;10.90;81.40
38592;DHT22;24356;48.460;11.450;2023-05-07T01:30:49;10.90;81.40
38592;DHT22;24356;48.460;11.450;2023-05-07T01:33:20;10.90;81.40
38592;DHT22;24356;48.460;11.450;2023-05-07T01:35:49;10.90;81.50
38592;DHT22;24356;48.460;11.450;2023-05-07T01:38:16;10.90;81.60
38592;DHT22;24356;48.460;11.450;2023-05-07T01:40:42;10.90;81.60
38592;DHT22;24356;48.460;11.450;2023-05-07T01:43:08;10.90;81.50
38592;DHT22;24356;48.460;11.450;2023-05-07T01:45:35;10.90;81.50
38592;DHT22;24356;48.460;11.450;2023-05-07T01:48:02;10.90;81.50
38592;DHT22;24356;48.460;11.450;2023-05-07T01:50:28;10.80;81.60
38592;DHT22;24356;48.460;11.450;2023-05-07T01:52:54;10.80;81.50
38592;DHT22;24356;48.460;11.450;2023-05-07T01:55:19;10.80;81.60
38592;DHT22;24356;48.460;11.450;2023-05-07T01:57:45;10.80;81.70
38592;DHT22;24356;48.460;11.450;2023-05-07T02:00:11;10.80;81.60
38592;DHT22;24356;48.460;11.450;2023-05-07T02:02:37;10.80;81.70
38592;DHT22;24356;48.460;11.450;2023-05-07T02:05:03;10.80;81.70
38592;DHT22;24356;48.460;11.450;2023-05-07T02:07:29;10.70;81.70
38592;DHT22;24356;48.460;11.450;2023-05-07T02:09:54;10.70;81.60
38592;DHT22;24356;48.460;11.450;2023-05-07T02:12:23;10.70;81.80
38592;DHT22;24356;48.460;11.450;2023-05-07T02:14:49;10.70;81.70
38592;DHT22;24356;48.460;11.450;2023-05-07T02:17:15;10.70;81.90
38592;DHT22;24356;48.460;11.450;2023-05-07T02:19:40;10.70;81.80
38592;DHT22;24356;48.460;11.450;2023-05-07T02:22:07;10.70;81.80
38592;DHT22;24356;48.460;11.450;2023-05-07T02:24:32;10.60;82.00
38592;DHT22;24356;48.460;11.450;2023-05-07T02:26:58;10.60;82.00
38592;DHT22;24356;48.460;11.450;2023-05-07T02:29:23;10.60;81.90
38592;DHT22;24356;48.460;11.450;2023-05-07T02:31:49;10.60;81.90
38592;DHT22;24356;48.460;11.450;2023-05-07T02:34:16;10.60;81.90
38592;DHT22;24356;48.460;11.450;2023-05-07T02:36:42;10.50;82.00
38592;DHT22;24356;48.460;11.450;2023-05-07T02:39:08;10.50;81.90
38592;DHT22;24356;48.460;11.450;2023-05-07T02:41:33;10.50;82.00
38592;DHT22;24356;48.460;11.450;2023-05-07T02:43:59;10.50;82.00
38592;DHT22;24356;48.460;11.450;2023-05-07T02:46:24;10.50;82.00
38592;DHT22;24356;48.460;11.450;2023-05-07T02:48:50;10.50;82.10
38592;DHT22;24356;48.460;11.450;2023-05-07T02:51:19;10.40;82.00
38592;DHT22;24356;48.460;11.450;2023-05-07T02:53:45;10.40;82.00
38592;DHT22;24356;48.460;11.450;2023-05-07T02:56:11;10.40;81.90
38592;DHT22;24356;48.460;11.450;2023-05-07T02:58:37;10.40;82.20
38592;DHT22;24356;48.460;11.450;2023-05-07T03:01:05;10.40;82.10
38592;DHT22;24356;48.460;11.450;2023-05-07T03:03:30;10.30;82.00
38592;DHT22;24356;48.460;11.450;2023-05-07T03:05:56;10.30;82.10
38592;DHT22;24356;48.460;11.450;2023-05-07T03:08:21;10.30;81.90
38592;DHT22;24356;48.460;11.450;2023-05-07T03:10:47;10.30;82.20
38592;DHT22;24356;48.460;11.450;2023-05-07T03:13:12;10.30;82.00
38592;DHT22;24356;48.460;11.450;2023-05-07T03:15:39;10.20;82.10
38592;DHT22;24356;48.460;11.450;2023-05-07T03:18:05;10.20;82.20
38592;DHT22;24356;48.460;11.450;2023-05-07T03:20:30;10.20;82.30
38592;DHT22;24356;48.460;11.450;2023-05-07T03:22:56;10.20;82.30
38592;DHT22;24356;48.460;11.450;2023-05-07T03:25:22;10.20;82.30
38592;DHT22;24356;48.460;11.450;2023-05-07T03:27:47;10.10;82.30
38592;DHT22;24356;48.460;11.450;2023-05-07T03:30:13;10.10;82.30
38592;DHT22;24356;48.460;11.450;2023-05-07T03:32:39;10.10;82.30
38592;DHT22;24356;48.460;11.450;2023-05-07T03:35:05;10.10;82.30
38592;DHT22;24356;48.460;11.450;2023-05-07T03:37:30;10.10;82.40
38592;DHT22;24356;48.460;11.450;2023-05-07T03:39:56;10.00;82.40
38592;DHT22;24356;48.460;11.450;2023-05-07T03:42:21;10.00;82.30
38592;DHT22;24356;48.460;11.450;2023-05-07T03:44:47;10.00;82.40
38592;DHT22;24356;48.460;11.450;2023-05-07T03:47:13;10.00;82.30
38592;DHT22;24356;48.460;11.450;2023-05-07T03:49:39;10.00;82.40
38592;DHT22;24356;48.460;11.450;2023-05-07T03:52:05;9.90;82.40
38592;DHT22;24356;48.460;11.450;2023-05-07T03:54:30;9.90;82.50
38592;DHT22;24356;48.460;11.450;2023-05-07T03:56:56;9.90;82.40
38592;DHT22;24356;48.460;11.450;2023-05-07T03:59:22;9.90;82.40
38592;DHT22;24356;48.460;11.450;2023-05-07T04:01:47;9.80;82.40
38592;DHT22;24356;48.460;11.450;2023-05-07T04:04:14;9.80;82.50
38592;DHT22;24356;48.460;11.450;2023-05-07T04:06:40;9.80;82.40
38592;DHT22;24356;48.460;11.450;2023-05-07T04:09:05;9.80;82.40
38592;DHT22;24356;48.460;11.450;2023-05-07T04:11:31;9.80;82.40
38592;DHT22;24356;48.460;11.450;2023-05-07T04:13:57;9.80;82.40
38592;DHT22;24356;48.460;11.450;2023-05-07T04:16:23;9.70;82.40
38592;DHT22;24356;48.460;11.450;2023-05-07T04:18:48;9.70;82.50
38592;DHT22;24356;48.460;11.450;2023-05-07T04:21:19;9.70;82.40
38592;DHT22;24356;48.460;11.450;2023-05-07T04:23:46;9.70;82.40
38592;DHT22;24356;48.460;11.450;2023-05-07T04:26:11;9.70;82.50
38592;DHT22;24356;48.460;11.450;2023-05-07T04:28:37;9.70;82.50
38592;DHT22;24356;48.460;11.450;2023-05-07T04:31:03;9.70;82.60
38592;DHT22;24356;48.460;11.450;2023-05-07T04:33:29;9.60;82.50
38592;DHT22;24356;48.460;11.450;2023-05-07T04:35:54;9.60;82.50
38592;DHT22;24356;48.460;11.450;2023-05-07T04:38:20;9.60;82.50
38592;DHT22;24356;48.460;11.450;2023-05-07T04:40:45;9.60;82.60
38592;DHT22;24356;48.460;11.450;2023-05-07T04:43:12;9.60;82.50
38592;DHT22;24356;48.460;11.450;2023-05-07T04:45:38;9.60;82.60
38592;DHT22;24356;48.460;11.450;2023-05-07T04:48:06;9.60;82.50
38592;DHT22;24356;48.460;11.450;2023-05-07T04:50:32;9.60;82.50
38592;DHT22;24356;48.460;11.450;2023-05-07T04:52:58;9.60;82.60
38592;DHT22;24356;48.460;11.450;2023-05-07T04:55:23;9.60;82.40
38592;DHT22;24356;48.460;11.450;2023-05-07T04:57:49;9.60;82.50
38592;DHT22;24356;48.460;11.450;2023-05-07T05:00:15;9.60;82.50
38592;DHT22;24356;48.460;11.450;2023-05-07T05:02:41;9.60;82.40
38592;DHT22;24356;48.460;11.450;2023-05-07T05:05:07;9.60;82.40
38592;DHT22;24356;48.460;11.450;2023-05-07T05:07:33;9.60;82.40
38592;DHT22;24356;48.460;11.450;2023-05-07T05:09:59;9.60;82.30
38592;DHT22;24356;48.460;11.450;2023-05-07T05:12:24;9.60;82.30
38592;DHT22;24356;48.460;11.450;2023-05-07T05:14:50;9.70;82.30
38592;DHT22;24356;48.460;11.450;2023-05-07T05:17:15;9.70;82.10
38592;DHT22;24356;48.460;11.450;2023-05-07T05:19:41;9.70;82.00
38592;DHT22;24356;48.460;11.450;2023-05-07T05:22:06;9.70;82.00
38592;DHT22;24356;48.460;11.450;2023-05-07T05:24:32;9.70;82.00
38592;DHT22;24356;48.460;11.450;2023-05-07T05:26:58;9.70;81.90
38592;DHT22;24356;48.460;11.450;2023-05-07T05:29:26;9.80;81.80
38592;DHT22;24356;48.460;11.450;2023-05-07T05:31:52;9.80;81.70
38592;DHT22;24356;48.460;11.450;2023-05-07T05:34:17;9.80;81.60
38592;DHT22;24356;48.460;11.450;2023-05-07T05:36:45;9.90;83.00
38592;DHT22;24356;48.460;11.450;2023-05-07T05:39:10;9.90;82.30
38592;DHT22;24356;48.460;11.450;2023-05-07T05:41:36;9.90;82.50
38592;DHT22;24356;48.460;11.450;2023-05-07T05:44:01;10.00;82.60
38592;DHT22;24356;48.460;11.450;2023-05-07T05:46:27;10.10;83.00
38592;DHT22;24356;48.460;11.450;2023-05-07T05:48:52;10.10;82.80
38592;DHT22;24356;48.460;11.450;2023-05-07T05:51:18;10.20;82.60
38592;DHT22;24356;48.460;11.450;2023-05-07T05:53:43;10.20;82.20
38592;DHT22;24356;48.460;11.450;2023-05-07T05:56:09;10.30;82.50
38592;DHT22;24356;48.460;11.450;2023-05-07T05:58:35;10.30;82.30
38592;DHT22;24356;48.460;11.450;2023-05-07T06:01:01;10.40;82.50
38592;DHT22;24356;48.460;11.450;2023-05-07T06:03:28;10.50;82.50
38592;DHT22;24356;48.460;11.450;2023-05-07T06:05:53;10.70;82.90
38592;DHT22;24356;48.460;11.450;2023-05-07T06:08:19;10.80;83.30
38592;DHT22;24356;48.460;11.450;2023-05-07T06:10:45;11.00;82.80
38592;DHT22;24356;48.460;11.450;2023-05-07T06:13:10;11.30;83.00
38592;DHT22;24356;48.460;11.450;2023-05-07T06:15:36;11.50;82.70
38592;DHT22;24356;48.460;11.450;2023-05-07T06:18:02;11.60;82.30
38592;DHT22;24356;48.460;11.450;2023-05-07T06:20:27;11.90;82.30
38592;DHT22;24356;48.460;11.450;2023-05-07T06:22:53;12.10;81.40
38592;DHT22;24356;48.460;11.450;2023-05-07T06:25:18;12.30;81.40
38592;DHT22;24356;48.460;11.450;2023-05-07T06:27:44;12.60;80.70
38592;DHT22;24356;48.460;11.450;2023-05-07T06:30:10;12.80;80.20
38592;DHT22;24356;48.460;11.450;2023-05-07T06:32:36;13.00;80.20
38592;DHT22;24356;48.460;11.450;2023-05-07T06:35:02;13.30;79.80
38592;DHT22;24356;48.460;11.450;2023-05-07T06:37:27;13.60;79.10
38592;DHT22;24356;48.460;11.450;2023-05-07T06:39:53;13.80;79.00
38592;DHT22;24356;48.460;11.450;2023-05-07T06:42:19;14.10;78.30
38592;DHT22;24356;48.460;11.450;2023-05-07T06:44:44;14.30;77.60
38592;DHT22;24356;48.460;11.450;2023-05-07T06:47:10;14.50;77.30
38592;DHT22;24356;48.460;11.450;2023-05-07T06:49:35;14.70;77.30
38592;DHT22;24356;48.460;11.450;2023-05-07T06:52:01;14.80;77.40
38592;DHT22;24356;48.460;11.450;2023-05-07T06:54:27;14.90;77.20
38592;DHT22;24356;48.460;11.450;2023-05-07T06:56:52;14.90;77.50
38592;DHT22;24356;48.460;11.450;2023-05-07T06:59:18;15.00;77.60
38592;DHT22;24356;48.460;11.450;2023-05-07T07:01:44;15.10;77.60
38592;DHT22;24356;48.460;11.450;2023-05-07T07:04:10;15.20;77.80
38592;DHT22;24356;48.460;11.450;2023-05-07T07:06:35;15.40;78.10
38592;DHT22;24356;48.460;11.450;2023-05-07T07:09:01;15.60;77.50
38592;DHT22;24356;48.460;11.450;2023-05-07T07:11:26;15.70;77.90
38592;DHT22;24356;48.460;11.450;2023-05-07T07:13:52;15.90;77.30
38592;DHT22;24356;48.460;11.450;2023-05-07T07:16:20;16.00;76.90
38592;DHT22;24356;48.460;11.450;2023-05-07T07:18:46;16.10;77.30
38592;DHT22;24356;48.460;11.450;2023-05-07T07:21:11;16.20;77.70
38592;DHT22;24356;48.460;11.450;2023-05-07T07:23:37;16.30;77.80
38592;DHT22;24356;48.460;11.450;2023-05-07T07:26:02;16.40;78.30
38592;DHT22;24356;48.460;11.450;2023-05-07T07:28:28;16.60;77.70
38592;DHT22;24356;48.460;11.450;2023-05-07T07:30:53;16.90;78.00
38592;DHT22;24356;48.460;11.450;2023-05-07T07:33:19;17.10;77.60
38592;DHT22;24356;48.460;11.450;2023-05-07T07:35:45;17.40;77.50
38592;DHT22;24356;48.460;11.450;2023-05-07T07:38:10;17.80;76.90
38592;DHT22;24356;48.460;11.450;2023-05-07T07:40:36;18.10;76.50
38592;DHT22;24356;48.460;11.450;2023-05-07T07:43:01;18.30;76.30
38592;DHT22;24356;48.460;11.450;2023-05-07T07:45:27;18.50;76.20
38592;DHT22;24356;48.460;11.450;2023-05-07T07:47:53;18.80;76.40
38592;DHT22;24356;48.460;11.450;2023-05-07T07:50:19;19.00;76.80
38592;DHT22;24356;48.460;11.450;2023-05-07T07:52:44;19.20;75.70
38592;DHT22;24356;48.460;11.450;2023-05-07T07:55:10;19.40;76.00
38592;DHT22;24356;48.460;11.450;2023-05-07T07:57:36;19.60;75.90
38592;DHT22;24356;48.460;11.450;2023-05-07T08:00:02;19.80;75.80
38592;DHT22;24356;48.460;11.450;2023-05-07T08:02:27;20.00;75.50
38592;DHT22;24356;48.460;11.450;2023-05-07T08:04:53;20.20;75.30
38592;DHT22;24356;48.460;11.450;2023-05-07T08:07:18;20.40;75.10
38592;DHT22;24356;48.460;11.450;2023-05-07T08:09:46;20.60;74.80
38592;DHT22;24356;48.460;11.450;2023-05-07T08:12:11;20.80;75.50
38592;DHT22;24356;48.460;11.450;2023-05-07T08:14:37;20.60;73.50
38592;DHT22;24356;48.460;11.450;2023-05-07T08:17:03;20.50;73.80
38592;DHT22;24356;48.460;11.450;2023-05-07T08:19:28;20.50;73.60
38592;DHT22;24356;48.460;11.450;2023-05-07T08:21:54;20.50;73.80
38592;DHT22;24356;48.460;11.450;2023-05-07T08:24:20;20.50;71.70
38592;DHT22;24356;48.460;11.450;2023-05-07T08:26:46;20.50;72.80
38592;DHT22;24356;48.460;11.450;2023-05-07T08:29:12;20.60;72.70
38592;DHT22;24356;48.460;11.450;2023-05-07T08:31:37;20.80;73.00
38592;DHT22;24356;48.460;11.450;2023-05-07T08:34:05;20.90;72.00
38592;DHT22;24356;48.460;11.450;2023-05-07T08:36:30;20.90;71.80
38592;DHT22;24356;48.460;11.450;2023-05-07T08:38:56;21.00;71.00
38592;DHT22;24356;48.460;11.450;2023-05-07T08:41:21;21.10;70.00
38592;DHT22;24356;48.460;11.450;2023-05-07T08:43:49;21.20;70.00
38592;DHT22;24356;48.460;11.450;2023-05-07T08:46:22;21.40;71.20
38592;DHT22;24356;48.460;11.450;2023-05-07T08:48:48;21.90;72.10
38592;DHT22;24356;48.460;11.450;2023-05-07T08:51:17;22.30;71.60
38592;DHT22;24356;48.460;11.450;2023-05-07T08:53:43;22.60;72.30
38592;DHT22;24356;48.460;11.450;2023-05-07T08:56:09;22.90;71.60
38592;DHT22;24356;48.460;11.450;2023-05-07T08:58:35;23.10;71.80
38592;DHT22;24356;48.460;11.450;2023-05-07T09:01:09;23.30;71.50
38592;DHT22;24356;48.460;11.450;2023-05-07T09:03:37;23.60;71.30
38592;DHT22;24356;48.460;11.450;2023-05-07T09:06:03;23.70;71.30
38592;DHT22;24356;48.460;11.450;2023-05-07T09:08:29;23.90;71.20
38592;DHT22;24356;48.460;11.450;2023-05-07T09:10:54;24.00;71.20
38592;DHT22;24356;48.460;11.450;2023-05-07T09:13:20;24.20;70.50
38592;DHT22;24356;48.460;11.450;2023-05-07T09:15:46;24.20;70.40
38592;DHT22;24356;48.460;11.450;2023-05-07T09:18:12;24.30;71.20
38592;DHT22;24356;48.460;11.450;2023-05-07T09:20:39;24.50;70.70
38592;DHT22;24356;48.460;11.450;2023-05-07T09:23:06;24.60;70.10
38592;DHT22;24356;48.460;11.450;2023-05-07T09:25:33;24.80;69.90
38592;DHT22;24356;48.460;11.450;2023-05-07T09:28:00;25.00;69.90
38592;DHT22;24356;48.460;11.450;2023-05-07T09:30:30;25.10;68.70
38592;DHT22;24356;48.460;11.450;2023-05-07T09:33:01;25.20;68.20
38592;DHT22;24356;48.460;11.450;2023-05-07T09:35:27;25.30;67.60
38592;DHT22;24356;48.460;11.450;2023-05-07T09:37:54;25.30;67.40
38592;DHT22;24356;48.460;11.450;2023-05-07T09:40:22;25.40;68.10
38592;DHT22;24356;48.460;11.450;2023-05-07T09:42:48;25.40;66.10
38592;DHT22;24356;48.460;11.450;2023-05-07T09:45:15;25.50;65.80
38592;DHT22;24356;48.460;11.450;2023-05-07T09:47:42;25.50;65.40
38592;DHT22;24356;48.460;11.450;2023-05-07T09:50:10;25.70;65.80
38592;DHT22;24356;48.460;11.450;2023-05-07T09:52:39;25.80;66.90
38592;DHT22;24356;48.460;11.450;2023-05-07T09:55:07;25.90;64.40
38592;DHT22;24356;48.460;11.450;2023-05-07T09:57:33;26.10;63.50
38592;DHT22;24356;48.460;11.450;2023-05-07T09:59:59;26.20;63.60
38592;DHT22;24356;48.460;11.450;2023-05-07T10:02:29;26.40;64.50
38592;DHT22;24356;48.460;11.450;2023-05-07T10:04:56;26.40;63.20
38592;DHT22;24356;48.460;11.450;2023-05-07T10:07:24;26.60;63.70
38592;DHT22;24356;48.460;11.450;2023-05-07T10:09:50;26.70;64.40
38592;DHT22;24356;48.460;11.450;2023-05-07T10:12:17;26.90;62.10
38592;DHT22;24356;48.460;11.450;2023-05-07T10:14:45;26.90;62.00
38592;DHT22;24356;48.460;11.450;2023-05-07T10:17:11;27.10;62.20
38592;DHT22;24356;48.460;11.450;2023-05-07T10:19:37;27.20;62.10
38592;DHT22;24356;48.460;11.450;2023-05-07T10:22:05;27.30;61.90
38592;DHT22;24356;48.460;11.450;2023-05-07T10:24:36;27.50;62.40
38592;DHT22;24356;48.460;11.450;2023-05-07T10:27:05;27.60;62.60
38592;DHT22;24356;48.460;11.450;2023-05-07T10:32:42;27.90;62.60
38592;DHT22;24356;48.460;11.450;2023-05-07T10:35:14;28.00;61.90
38592;DHT22;24356;48.460;11.450;2023-05-07T10:37:41;28.10;63.40
38592;DHT22;24356;48.460;11.450;2023-05-07T10:40:09;28.10;62.70
38592;DHT22;24356;48.460;11.450;2023-05-07T10:42:35;28.10;62.50
38592;DHT22;24356;48.460;11.450;2023-05-07T10:45:21;28.10;61.90
38592;DHT22;24356;48.460;11.450;2023-05-07T10:48:12;28.20;61.20
38592;DHT22;24356;48.460;11.450;2023-05-07T10:50:39;28.20;60.40
38592;DHT22;24356;48.460;11.450;2023-05-07T10:55:51;28.20;60.20
38592;DHT22;24356;48.460;11.450;2023-05-07T10:58:25;28.20;61.30
38592;DHT22;24356;48.460;11.450;2023-05-07T11:00:56;28.20;61.80
38592;DHT22;24356;48.460;11.450;2023-05-07T11:03:22;28.20;62.10
38592;DHT22;24356;48.460;11.450;2023-05-07T11:11:17;28.10;61.10
38592;DHT22;24356;48.460;11.450;2023-05-07T11:13:47;28.10;60.20
38592;DHT22;24356;48.460;11.450;2023-05-07T11:16:21;28.10;60.10
38592;DHT22;24356;48.460;11.450;2023-05-07T11:18:52;28.10;59.90
38592;DHT22;24356;48.460;11.450;2023-05-07T11:21:40;28.00;59.30
38592;DHT22;24356;48.460;11.450;2023-05-07T11:24:07;27.90;59.90
38592;DHT22;24356;48.460;11.450;2023-05-07T11:26:53;27.90;60.10
38592;DHT22;24356;48.460;11.450;2023-05-07T11:29:20;27.90;60.80
38592;DHT22;24356;48.460;11.450;2023-05-07T11:31:51;27.80;60.00
38592;DHT22;24356;48.460;11.450;2023-05-07T11:34:21;27.80;60.60
38592;DHT22;24356;48.460;11.450;2023-05-07T11:36:48;27.80;60.90
38592;DHT22;24356;48.460;11.450;2023-05-07T11:39:31;27.80;61.20
38592;DHT22;24356;48.460;11.450;2023-05-07T11:41:59;27.70;59.70
38592;DHT22;24356;48.460;11.450;2023-05-07T11:44:25;27.70;60.20
38592;DHT22;24356;48.460;11.450;2023-05-07T11:46:50;27.70;59.40
38592;DHT22;24356;48.460;11.450;2023-05-07T11:49:17;27.60;59.50
38592;DHT22;24356;48.460;11.450;2023-05-07T11:51:42;27.60;59.20
38592;DHT22;24356;48.460;11.450;2023-05-07T11:54:08;27.50;59.10
38592;DHT22;24356;48.460;11.450;2023-05-07T11:56:37;27.50;59.30
38592;DHT22;24356;48.460;11.450;2023-05-07T11:59:02;27.40;60.00
38592;DHT22;24356;48.460;11.450;2023-05-07T12:01:28;27.30;59.60
38592;DHT22;24356;48.460;11.450;2023-05-07T12:03:54;27.20;59.90
38592;DHT22;24356;48.460;11.450;2023-05-07T12:06:19;27.20;60.10
38592;DHT22;24356;48.460;11.450;2023-05-07T12:08:46;27.10;61.20
38592;DHT22;24356;48.460;11.450;2023-05-07T12:11:24;27.10;60.30
38592;DHT22;24356;48.460;11.450;2023-05-07T12:13:51;27.00;60.50
38592;DHT22;24356;48.460;11.450;2023-05-07T12:16:17;27.00;60.70
38592;DHT22;24356;48.460;11.450;2023-05-07T12:18:43;26.90;61.60
38592;DHT22;24356;48.460;11.450;2023-05-07T12:21:09;26.90;60.70
38592;DHT22;24356;48.460;11.450;2023-05-07T12:23:36;26.90;60.10
38592;DHT22;24356;48.460;11.450;2023-05-07T12:26:03;26.80;60.40
38592;DHT22;24356;48.460;11.450;2023-05-07T12:28:28;26.80;61.00
38592;DHT22;24356;48.460;11.450;2023-05-07T12:30:56;26.90;61.10
38592;DHT22;24356;48.460;11.450;2023-05-07T12:33:26;26.90;61.00
38592;DHT22;24356;48.460;11.450;2023-05-07T12:35:55;27.00;60.90
38592;DHT22;24356;48.460;11.450;2023-05-07T12:38:22;27.00;62.00
38592;DHT22;24356;48.460;11.450;2023-05-07T12:40:49;27.00;62.60
38592;DHT22;24356;48.460;11.450;2023-05-07T12:43:17;27.00;62.20
38592;DHT22;24356;48.460;11.450;2023-05-07T12:45:50;27.00;61.80
38592;DHT22;24356;48.460;11.450;2023-05-07T12:48:17;27.00;61.50
38592;DHT22;24356;48.460;11.450;2023-05-07T12:50:43;27.00;61.80
38592;DHT22;24356;48.460;11.450;2023-05-07T12:53:10;27.10;61.20
38592;DHT22;24356;48.460;11.450;2023-05-07T12:55:57;27.10;61.60
38592;DHT22;24356;48.460;11.450;2023-05-07T12:58:28;27.10;61.70
38592;DHT22;24356;48.460;11.450;2023-05-07T13:00:55;27.20;62.70
38592;DHT22;24356;48.460;11.450;2023-05-07T13:03:25;27.30;62.10
38592;DHT22;24356;48.460;11.450;2023-05-07T13:05:51;27.40;62.00
38592;DHT22;24356;48.460;11.450;2023-05-07T13:08:49;27.40;62.50
38592;DHT22;24356;48.460;11.450;2023-05-07T13:11:15;27.50;62.30
38592;DHT22;24356;48.460;11.450;2023-05-07T13:13:41;27.60;62.30
38592;DHT22;24356;48.460;11.450;2023-05-07T13:16:09;27.70;62.30
38592;DHT22;24356;48.460;11.450;2023-05-07T13:18:34;27.70;62.60
38592;DHT22;24356;48.460;11.450;2023-05-07T13:21:01;27.80;62.00
38592;DHT22;24356;48.460;11.450;2023-05-07T13:23:27;27.80;62.00
38592;DHT22;24356;48.460;11.450;2023-05-07T13:25:53;27.80;61.70
38592;DHT22;24356;48.460;11.450;2023-05-07T13:28:25;27.80;61.40
38592;DHT22;24356;48.460;11.450;2023-05-07T13:30:52;27.90;61.20
38592;DHT22;24356;48.460;11.450;2023-05-07T13:33:18;27.90;61.60
38592;DHT22;24356;48.460;11.450;2023-05-07T13:35:44;27.90;61.60
38592;DHT22;24356;48.460;11.450;2023-05-07T13:38:10;27.90;61.40
38592;DHT22;24356;48.460;11.450;2023-05-07T13:40:35;27.90;61.20
38592;DHT22;24356;48.460;11.450;2023-05-07T13:43:01;27.90;60.90
38592;DHT22;24356;48.460;11.450;2023-05-07T13:45:30;27.90;61.00
38592;DHT22;24356;48.460;11.450;2023-05-07T13:47:56;28.00;60.70
38592;DHT22;24356;48.460;11.450;2023-05-07T13:50:22;28.00;61.20
38592;DHT22;24356;48.460;11.450;2023-05-07T13:52:48;28.00;60.90
38592;DHT22;24356;48.460;11.450;2023-05-07T13:55:18;28.00;60.50
38592;DHT22;24356;48.460;11.450;2023-05-07T13:57:44;28.00;60.20
38592;DHT22;24356;48.460;11.450;2023-05-07T14:00:10;28.00;60.40
38592;DHT22;24356;48.460;11.450;2023-05-07T14:02:36;27.90;59.70
38592;DHT22;24356;48.460;11.450;2023-05-07T14:05:02;27.80;59.50
38592;DHT22;24356;48.460;11.450;2023-05-07T14:07:28;27.70;60.10
38592;DHT22;24356;48.460;11.450;2023-05-07T14:09:54;27.60;59.80
38592;DHT22;24356;48.460;11.450;2023-05-07T14:12:20;27.50;59.90
38592;DHT22;24356;48.460;11.450;2023-05-07T14:14:47;27.40;60.00
38592;DHT22;24356;48.460;11.450;2023-05-07T14:17:12;27.30;59.80
38592;DHT22;24356;48.460;11.450;2023-05-07T14:19:38;27.20;59.60
38592;DHT22;24356;48.460;11.450;2023-05-07T14:22:03;27.10;59.90
38592;DHT22;24356;48.460;11.450;2023-05-07T14:24:29;27.00;60.20
38592;DHT22;24356;48.460;11.450;2023-05-07T14:26:55;26.90;60.50
38592;DHT22;24356;48.460;11.450;2023-05-07T14:29:21;26.80;60.40
38592;DHT22;24356;48.460;11.450;2023-05-07T14:31:47;26.70;60.30
38592;DHT22;24356;48.460;11.450;2023-05-07T14:34:14;26.60;60.60
38592;DHT22;24356;48.460;11.450;2023-05-07T14:36:39;26.60;60.60
38592;DHT22;24356;48.460;11.450;2023-05-07T14:39:07;26.50;60.70
38592;DHT22;24356;48.460;11.450;2023-05-07T14:41:32;26.50;60.60
38592;DHT22;24356;48.460;11.450;2023-05-07T14:43:58;26.50;61.00
38592;DHT22;24356;48.460;11.450;2023-05-07T14:46:24;26.40;61.00
38592;DHT22;24356;48.460;11.450;2023-05-07T14:48:51;26.40;61.20
38592;DHT22;24356;48.460;11.450;2023-05-07T14:51:16;26.30;61.30
38592;DHT22;24356;48.460;11.450;2023-05-07T14:53:47;26.30;60.80
38592;DHT22;24356;48.460;11.450;2023-05-07T14:56:14;26.20;60.90
38592;DHT22;24356;48.460;11.450;2023-05-07T14:58:40;26.10;61.00
38592;DHT22;24356;48.460;11.450;2023-05-07T15:01:05;26.00;61.20
38592;DHT22;24356;48.460;11.450;2023-05-07T15:03:31;25.90;61.40
38592;DHT22;24356;48.460;11.450;2023-05-07T15:05:57;25.80;61.70
38592;DHT22;24356;48.460;11.450;2023-05-07T15:08:22;25.80;61.70
38592;DHT22;24356;48.460;11.450;2023-05-07T15:10:48;25.70;61.70
38592;DHT22;24356;48.460;11.450;2023-05-07T15:13:14;25.60;61.90
38592;DHT22;24356;48.460;11.450;2023-05-07T15:15:39;25.60;61.90
38592;DHT22;24356;48.460;11.450;2023-05-07T15:18:05;25.50;61.60
38592;DHT22;24356;48.460;11.450;2023-05-07T15:20:31;25.40;61.80
38592;DHT22;24356;48.460;11.450;2023-05-07T15:22:58;25.30;61.90
38592;DHT22;24356;48.460;11.450;2023-05-07T15:25:24;25.20;61.70